Time;durP1;ratioP1;P1;durP2;ratioP2;P2;SDS_P1;SDS_P2;PMS_P1;PMS_P2;Temp;Humidity;BMP_temperature;BMP_pressure;BME280_temperature;BME280_humidity;BME280_pressure;Samples;Min_cycle;Max_cycle;Signal;HPM_P1;HPM_P2
2021/05/09 00:00:20;;;;;;;2.02;1.02;;;;;;;30.33;29.14;159144.27;1634417;87;21911;-87
2021/05/09 00:02:52;;;;;;;2.22;1.30;;;;;;;30.33;29.15;159145.58;1633979;86;21352;-87
2021/05/09 00:05:25;;;;;;;3.15;1.20;;;;;;;30.30;29.18;159134.95;1627291;87;21422;-88
2021/05/09 00:07:57;;;;;;;1.65;1.00;;;;;;;30.31;29.14;159137.63;1640299;87;21241;-88
2021/05/09 00:10:29;;;;;;;2.75;1.07;;;;;;;30.43;29.05;159170.91;1647481;86;21241;-89
2021/05/09 00:13:02;;;;;;;1.07;0.90;;;;;;;30.45;29.03;159176.25;1620006;87;21264;-88
2021/05/09 00:15:35;;;;;;;1.70;1.10;;;;;;;30.43;29.02;159172.27;1619313;88;21228;-88
2021/05/09 00:18:07;;;;;;;2.12;1.10;;;;;;;30.40;29.04;159162.91;1619636;87;21382;-88
2021/05/09 00:20:39;;;;;;;1.90;1.30;;;;;;;30.34;29.05;159146.94;1619360;87;21256;-88
2021/05/09 00:23:13;;;;;;;2.55;1.20;;;;;;;30.29;29.12;159132.28;1635977;87;21376;-88
2021/05/09 00:25:46;;;;;;;1.00;0.90;;;;;;;30.24;29.12;159120.30;1647176;87;21269;-88
2021/05/09 00:28:18;;;;;;;2.17;1.50;;;;;;;30.24;29.16;159118.94;1647086;87;21400;-89
2021/05/09 00:30:51;;;;;;;1.77;1.10;;;;;;;30.23;29.15;159116.27;1647249;87;21249;-88
2021/05/09 00:33:24;;;;;;;1.27;1.07;;;;;;;30.23;29.12;159116.27;1646400;87;21329;-88
2021/05/09 00:35:57;;;;;;;1.87;1.20;;;;;;;30.20;29.15;159109.63;1647254;87;21416;-88
2021/05/09 00:38:29;;;;;;;1.98;1.05;;;;;;;30.16;29.16;159097.63;1646774;86;21325;-88
2021/05/09 00:41:01;;;;;;;1.52;1.20;;;;;;;30.04;29.25;159065.66;1638315;87;21485;-88
2021/05/09 00:43:34;;;;;;;1.25;1.00;;;;;;;30.12;29.20;159086.95;1619423;87;21192;-87
2021/05/09 00:46:06;;;;;;;2.05;1.07;;;;;;;30.10;29.19;159081.63;1634772;87;21225;-87
2021/05/09 00:48:39;;;;;;;1.75;1.20;;;;;;;30.08;29.19;159076.33;1618854;88;22315;-88
2021/05/09 00:51:11;;;;;;;1.90;1.00;;;;;;;30.08;29.18;159077.64;1636202;86;21298;-87
2021/05/09 00:53:45;;;;;;;1.32;1.00;;;;;;;30.10;29.15;159081.63;1635659;88;21240;-87
2021/05/09 00:56:17;;;;;;;2.20;1.32;;;;;;;30.04;29.18;159066.97;1613577;89;21251;-87
2021/05/09 00:58:51;;;;;;;1.52;1.10;;;;;;;30.03;29.18;159062.98;1607226;87;21205;-87
2021/05/09 01:01:24;;;;;;;1.42;1.02;;;;;;;30.06;29.13;159072.31;1629118;88;21443;-86
2021/05/09 01:03:58;;;;;;;1.42;1.15;;;;;;;29.96;29.18;159045.66;1610078;89;21741;-86
2021/05/09 01:06:31;;;;;;;1.57;1.00;;;;;;;29.92;29.22;159033.63;1610005;89;21274;-87
2021/05/09 01:09:04;;;;;;;2.35;1.30;;;;;;;29.90;29.22;159029.66;1593590;89;21910;-89
2021/05/09 01:11:36;;;;;;;1.50;1.00;;;;;;;29.89;29.23;159026.98;1613510;89;21403;-87
2021/05/09 01:14:08;;;;;;;1.92;0.98;;;;;;;29.89;29.22;159025.63;1611381;89;21303;-87
2021/05/09 01:16:43;;;;;;;1.80;1.20;;;;;;;29.94;29.18;159038.97;1611492;89;21193;-88
2021/05/09 01:19:46;;;;;;;2.65;1.00;;;;;;;29.87;29.21;159020.28;1611347;89;21783;-87
2021/05/09 01:22:18;;;;;;;1.90;1.10;;;;;;;29.88;29.21;159022.95;1610113;87;21288;-88
2021/05/09 01:24:51;;;;;;;5.55;1.10;;;;;;;29.81;29.23;159005.63;1609887;89;21216;-87
2021/05/09 01:27:24;;;;;;;1.70;1.15;;;;;;;29.81;29.22;159005.63;1609755;89;21281;-87
2021/05/09 01:29:56;;;;;;;2.35;1.12;;;;;;;29.79;29.23;158999.00;1609903;88;21244;-87
2021/05/09 01:32:28;;;;;;;1.67;1.17;;;;;;;29.75;29.23;158989.69;1610142;89;21821;-87
2021/05/09 01:35:02;;;;;;;1.92;1.30;;;;;;;29.75;29.24;158988.31;1609855;89;21256;-87
2021/05/09 01:37:35;;;;;;;2.70;1.00;;;;;;;29.74;29.24;158985.70;1609912;89;21259;-87
2021/05/09 01:40:08;;;;;;;1.32;1.17;;;;;;;29.74;29.23;158987.00;1628493;87;21204;-87
2021/05/09 01:42:42;;;;;;;1.75;0.98;;;;;;;29.71;29.25;158977.69;1638272;86;21209;-87
2021/05/09 01:45:15;;;;;;;1.62;1.15;;;;;;;29.69;29.26;158972.36;1637308;86;21208;-88
2021/05/09 01:47:48;;;;;;;2.12;1.10;;;;;;;29.67;29.27;158968.37;1633955;86;21256;-87
2021/05/09 01:50:20;;;;;;;1.35;0.90;;;;;;;29.63;29.29;158957.72;1601679;88;21252;-87
2021/05/09 01:52:53;;;;;;;1.62;1.12;;;;;;;29.60;29.31;158949.70;1621358;87;21206;-88
2021/05/09 01:55:25;;;;;;;1.45;1.27;;;;;;;29.62;29.30;158955.05;1609145;87;21198;-87
2021/05/09 01:58:14;;;;;;;1.40;1.02;;;;;;;29.64;29.27;158960.38;1620480;88;22618;-87
2021/05/09 02:00:52;;;;;;;1.57;1.00;;;;;;;29.63;29.27;158956.34;1605297;89;21235;-88
2021/05/09 02:03:26;;;;;;;2.00;1.07;;;;;;;29.55;29.33;158936.41;1613727;88;21893;-87
2021/05/09 02:05:58;;;;;;;1.12;1.00;;;;;;;29.58;29.33;158943.06;1631268;86;21379;-86
2021/05/09 02:08:32;;;;;;;2.35;1.20;;;;;;;29.57;29.31;158940.39;1621461;88;21273;-87
2021/05/09 02:11:06;;;;;;;1.52;0.93;;;;;;;29.59;29.29;158945.73;1620985;88;21214;-87
2021/05/09 02:13:39;;;;;;;1.60;1.10;;;;;;;29.59;29.27;158947.03;1592532;89;21328;-87
2021/05/09 02:16:16;;;;;;;1.10;1.00;;;;;;;29.58;29.29;158943.06;1620593;87;21245;-87
2021/05/09 02:18:50;;;;;;;1.15;1.00;;;;;;;29.57;29.26;158941.70;1593984;88;21359;-87
2021/05/09 02:21:24;;;;;;;2.30;1.10;;;;;;;29.57;29.28;158941.70;1587811;88;21295;-86
2021/05/09 02:23:56;;;;;;;1.25;0.90;;;;;;;29.51;29.28;158925.75;1626957;88;21704;-87
2021/05/09 02:26:29;;;;;;;1.57;1.20;;;;;;;29.57;29.24;158940.39;1592293;89;21281;-87
2021/05/09 02:29:02;;;;;;;2.25;0.80;;;;;;;29.53;29.25;158931.09;1621166;88;21950;-87
2021/05/09 02:31:34;;;;;;;2.17;1.20;;;;;;;29.48;29.30;158917.75;1597145;88;21755;-86
2021/05/09 02:34:08;;;;;;;1.92;1.12;;;;;;;29.51;29.26;158924.44;1620708;87;21348;-86
2021/05/09 02:36:44;;;;;;;2.00;1.20;;;;;;;29.49;29.26;158919.09;1621255;88;21229;-87
2021/05/09 02:39:15;;;;;;;1.75;1.20;;;;;;;29.51;29.26;158924.44;1621318;88;21241;-85
2021/05/09 02:41:47;;;;;;;2.02;1.47;;;;;;;29.51;29.24;158925.75;1597444;88;21355;-85
2021/05/09 02:44:20;;;;;;;2.87;1.22;;;;;;;29.38;29.37;158891.13;1593084;89;21258;-88
2021/05/09 02:46:52;;;;;;;1.32;1.22;;;;;;;29.37;29.37;158888.41;1568080;90;21347;-88
2021/05/09 02:49:25;;;;;;;1.55;1.10;;;;;;;29.38;29.36;158891.13;1604826;86;21199;-86
2021/05/09 02:51:59;;;;;;;1.75;1.10;;;;;;;29.46;29.28;158911.09;1618233;87;21235;-85
2021/05/09 02:54:33;;;;;;;1.30;1.12;;;;;;;29.48;29.25;158916.44;1618215;87;21868;-86
2021/05/09 02:57:06;;;;;;;1.20;0.98;;;;;;;29.43;29.31;158903.09;1618174;87;21389;-87
2021/05/09 02:59:38;;;;;;;1.77;1.15;;;;;;;29.45;29.29;158909.75;1618889;87;21912;-86
2021/05/09 03:02:12;;;;;;;1.30;1.20;;;;;;;29.49;29.25;158919.09;1617937;87;21211;-86
2021/05/09 03:04:45;;;;;;;1.50;1.20;;;;;;;29.48;29.25;158917.75;1614131;88;21376;-86
2021/05/09 03:07:17;;;;;;;1.82;1.00;;;;;;;29.51;29.24;158924.44;1638251;87;21413;-87
2021/05/09 03:09:50;;;;;;;1.35;1.20;;;;;;;29.44;29.29;158905.77;1641818;87;21826;-86
2021/05/09 03:12:22;;;;;;;1.47;1.15;;;;;;;29.51;29.24;158924.44;1643321;87;21342;-86
2021/05/09 03:14:55;;;;;;;1.42;1.20;;;;;;;29.51;29.23;158924.44;1638431;86;21358;-86
2021/05/09 03:17:28;;;;;;;1.32;1.07;;;;;;;29.49;29.23;158920.41;1622467;87;22074;-86
2021/05/09 03:20:01;;;;;;;1.40;1.10;;;;;;;29.43;29.28;158904.45;1625936;87;21763;-86
2021/05/09 03:22:33;;;;;;;1.30;1.20;;;;;;;29.44;29.28;158905.77;1643295;87;21207;-86
2021/05/09 03:25:06;;;;;;;2.70;1.50;;;;;;;29.44;29.27;158905.77;1643439;87;21377;-87
2021/05/09 03:27:38;;;;;;;1.30;1.00;;;;;;;29.44;29.28;158907.13;1643321;86;21287;-86
2021/05/09 03:30:11;;;;;;;1.37;1.00;;;;;;;29.44;29.26;158905.77;1640073;86;21184;-86
2021/05/09 03:32:43;;;;;;;1.30;1.15;;;;;;;29.39;29.30;158893.78;1643685;87;21354;-88
2021/05/09 03:35:16;;;;;;;2.90;1.20;;;;;;;29.34;29.34;158880.39;1641898;86;21845;-88
2021/05/09 03:37:49;;;;;;;2.10;1.25;;;;;;;29.42;29.30;158901.78;1608545;87;21769;-88
2021/05/09 03:40:21;;;;;;;1.42;1.30;;;;;;;29.38;29.32;158891.13;1618304;87;21840;-88
2021/05/09 03:42:53;;;;;;;1.65;1.20;;;;;;;29.36;29.36;158885.73;1618200;87;21250;-88
2021/05/09 03:45:26;;;;;;;2.72;1.10;;;;;;;29.36;29.37;158885.73;1618356;87;21270;-88
2021/05/09 03:47:58;;;;;;;1.98;1.52;;;;;;;29.31;29.42;158871.08;1618632;87;21211;-86
2021/05/09 03:50:31;;;;;;;1.60;1.50;;;;;;;29.31;29.42;158869.78;1615655;87;21368;-87
2021/05/09 03:53:03;;;;;;;2.67;1.50;;;;;;;29.33;29.44;158875.11;1613880;87;21299;-87
2021/05/09 03:55:36;;;;;;;2.90;1.47;;;;;;;29.34;29.43;158880.39;1626127;87;21215;-87
2021/05/09 03:58:08;;;;;;;1.65;1.30;;;;;;;29.37;29.44;158887.09;1641860;87;21300;-87
2021/05/09 04:00:41;;;;;;;1.35;1.20;;;;;;;29.36;29.44;158885.73;1639851;86;21332;-87
2021/05/09 04:03:24;;;;;;;1.65;1.22;;;;;;;29.42;29.39;158900.44;1622635;87;21348;-87
2021/05/09 04:05:56;;;;;;;2.42;1.30;;;;;;;29.36;29.43;158884.42;1608480;87;21408;-86
2021/05/09 04:08:29;;;;;;;1.67;1.07;;;;;;;29.42;29.41;158901.78;1624565;87;21235;-87
2021/05/09 04:11:02;;;;;;;1.90;1.17;;;;;;;29.41;29.43;158899.12;1636972;87;21208;-87
2021/05/09 04:13:47;;;;;;;1.70;1.20;;;;;;;29.43;29.42;158903.09;1640830;87;21264;-87
2021/05/09 04:16:20;;;;;;;2.00;1.22;;;;;;;29.43;29.44;158904.45;1646797;87;21196;-87
2021/05/09 04:18:52;;;;;;;2.12;1.10;;;;;;;29.45;29.45;158908.44;1621287;87;21251;-87
2021/05/09 04:21:25;;;;;;;1.77;1.35;;;;;;;29.49;29.43;158919.09;1617006;87;21268;-87
2021/05/09 04:23:57;;;;;;;1.22;1.12;;;;;;;29.51;29.41;158925.75;1620180;87;21447;-87
2021/05/09 04:26:29;;;;;;;1.80;1.40;;;;;;;29.57;29.40;158940.39;1646705;87;21243;-85
2021/05/09 04:29:01;;;;;;;3.33;1.32;;;;;;;29.62;29.37;158953.73;1646644;85;21405;-86
2021/05/09 04:31:35;;;;;;;1.80;1.40;;;;;;;29.71;29.32;158979.00;1640720;86;21251;-86
2021/05/09 04:34:07;;;;;;;2.12;1.70;;;;;;;29.74;29.29;158985.70;1635636;86;21770;-86
2021/05/09 04:36:39;;;;;;;1.70;1.25;;;;;;;29.78;29.26;158997.69;1643825;86;21380;-87
2021/05/09 04:39:12;;;;;;;2.52;1.50;;;;;;;29.81;29.26;159004.33;1624693;87;21383;-85
2021/05/09 04:41:45;;;;;;;1.47;1.37;;;;;;;29.74;29.32;158987.00;1623216;87;21214;-86
2021/05/09 04:44:20;;;;;;;2.52;1.50;;;;;;;29.73;29.32;158984.34;1617019;87;21854;-88
2021/05/09 04:46:52;;;;;;;1.50;1.25;;;;;;;29.75;29.31;158988.31;1630042;87;21228;-87
2021/05/09 04:49:24;;;;;;;2.15;1.40;;;;;;;29.79;29.27;158999.00;1646450;87;21353;-85
2021/05/09 04:51:57;;;;;;;1.90;1.47;;;;;;;29.81;29.28;159004.33;1646516;87;21402;-86
2021/05/09 04:54:29;;;;;;;2.67;1.60;;;;;;;29.81;29.25;159004.33;1646312;87;21426;-85
2021/05/09 04:57:01;;;;;;;2.70;1.40;;;;;;;29.86;29.23;159017.67;1645004;86;21220;-88
2021/05/09 04:59:33;;;;;;;1.47;1.30;;;;;;;29.83;29.27;159009.66;1624440;87;21342;-86
2021/05/09 05:02:05;;;;;;;2.22;1.37;;;;;;;29.76;29.31;158992.34;1620749;87;21254;-86
2021/05/09 05:04:38;;;;;;;1.40;1.20;;;;;;;29.80;29.27;159001.66;1624920;87;21891;-89
2021/05/09 05:07:10;;;;;;;1.77;1.30;;;;;;;29.83;29.28;159010.97;1626905;87;21346;-85
2021/05/09 05:09:42;;;;;;;1.98;1.35;;;;;;;29.84;29.28;159013.64;1622584;87;21275;-84
2021/05/09 05:12:14;;;;;;;1.62;1.25;;;;;;;29.89;29.29;159025.63;1620789;87;21263;-84
2021/05/09 05:14:47;;;;;;;2.40;1.85;;;;;;;29.88;29.28;159022.95;1618741;87;21360;-86
2021/05/09 05:17:19;;;;;;;3.45;1.47;;;;;;;29.94;29.26;159038.97;1618740;87;21781;-86
2021/05/09 05:19:51;;;;;;;3.92;2.37;;;;;;;29.95;29.22;159043.00;1629567;87;21316;-85
2021/05/09 05:22:24;;;;;;;2.27;1.40;;;;;;;29.97;29.20;159048.33;1602325;87;21358;-86
2021/05/09 05:24:57;;;;;;;2.12;1.45;;;;;;;29.98;29.19;159051.00;1593719;90;21221;-86
2021/05/09 05:27:29;;;;;;;1.92;1.35;;;;;;;30.06;29.19;159072.31;1593858;90;21265;-86
2021/05/09 05:30:01;;;;;;;2.10;1.30;;;;;;;30.09;29.16;159079.00;1602331;87;21220;-88
2021/05/09 05:32:34;;;;;;;2.42;1.50;;;;;;;30.08;29.18;159076.33;1610017;87;21226;-86
2021/05/09 05:35:07;;;;;;;1.95;1.45;;;;;;;30.12;29.16;159088.31;1605699;87;21359;-87
2021/05/09 05:37:40;;;;;;;1.75;1.57;;;;;;;30.15;29.14;159094.97;1596544;88;21421;-88
2021/05/09 05:40:13;;;;;;;1.92;1.17;;;;;;;30.26;29.08;159124.28;1599708;87;21320;-89
2021/05/09 05:42:47;;;;;;;2.40;1.40;;;;;;;30.28;29.10;159129.61;1611911;88;21350;-91
2021/05/09 05:45:19;;;;;;;2.05;1.55;;;;;;;30.34;29.07;159148.25;1599725;87;21230;-88
2021/05/09 05:47:51;;;;;;;1.82;1.40;;;;;;;30.39;29.02;159161.59;1599619;87;21279;-86
2021/05/09 05:50:24;;;;;;;1.55;1.30;;;;;;;30.39;29.02;159161.59;1597621;87;21473;-86
2021/05/09 05:52:58;;;;;;;1.82;1.47;;;;;;;30.57;28.90;159209.59;1609456;87;21536;-86
2021/05/09 05:55:30;;;;;;;1.98;1.27;;;;;;;30.53;28.90;159197.61;1630620;87;21723;-85
2021/05/09 05:58:03;;;;;;;2.00;1.50;;;;;;;30.51;28.94;159193.62;1621961;87;21826;-86
2021/05/09 06:00:35;;;;;;;2.60;1.62;;;;;;;30.58;28.90;159210.97;1619546;87;21441;-85
2021/05/09 06:03:08;;;;;;;1.98;1.37;;;;;;;30.63;28.86;159224.25;1620311;87;21435;-86
2021/05/09 06:05:42;;;;;;;1.60;1.45;;;;;;;30.65;28.84;159230.95;1620248;87;21259;-85
2021/05/09 06:08:20;;;;;;;2.75;1.50;;;;;;;30.73;28.78;159252.27;1607691;88;21290;-85
2021/05/09 06:10:48;;;;;;;1.98;1.40;;;;;;;30.84;28.71;159280.28;1623072;87;21235;-85
2021/05/09 06:13:24;;;;;;;1.90;1.70;;;;;;;30.91;28.64;159300.23;1607622;88;21333;-86
2021/05/09 06:15:56;;;;;;;1.27;1.10;;;;;;;30.98;28.58;159317.56;1590738;88;21914;-86
2021/05/09 06:18:29;;;;;;;1.57;1.25;;;;;;;30.96;28.62;159312.28;1605277;88;21229;-87
2021/05/09 06:21:01;;;;;;;1.65;1.20;;;;;;;30.92;28.67;159301.59;1605256;89;22446;-85
2021/05/09 06:23:34;;;;;;;3.37;0.90;;;;;;;30.96;28.64;159313.59;1605315;88;21305;-84
2021/05/09 06:26:06;;;;;;;1.40;1.27;;;;;;;30.99;28.63;159320.23;1605374;88;21866;-85
2021/05/09 06:28:38;;;;;;;2.35;1.70;;;;;;;31.12;28.56;159356.31;1605401;88;21371;-85
2021/05/09 06:31:11;;;;;;;3.12;1.27;;;;;;;31.20;28.51;159377.64;1580095;88;21241;-85
2021/05/09 06:33:43;;;;;;;2.80;1.30;;;;;;;31.28;28.48;159400.31;1597103;88;21252;-85
2021/05/09 06:36:16;;;;;;;1.25;1.07;;;;;;;31.32;28.47;159409.64;1609501;87;21238;-86
2021/05/09 06:38:49;;;;;;;2.25;1.30;;;;;;;31.38;28.47;159425.63;1594352;90;21221;-85
2021/05/09 06:41:22;;;;;;;1.90;1.10;;;;;;;31.41;28.46;159435.00;1579188;88;21747;-84
2021/05/09 06:43:57;;;;;;;1.65;1.10;;;;;;;31.47;28.42;159450.97;1595719;88;21803;-85
2021/05/09 06:46:30;;;;;;;1.70;1.30;;;;;;;31.54;28.38;159469.63;1595873;88;21249;-85
2021/05/09 06:49:03;;;;;;;1.25;1.10;;;;;;;31.57;28.37;159477.69;1600562;88;21783;-87
2021/05/09 06:51:35;;;;;;;1.32;0.95;;;;;;;31.63;28.31;159492.36;1596857;87;21252;-85
2021/05/09 06:54:08;;;;;;;1.35;0.90;;;;;;;31.71;28.24;159515.05;1609256;87;21216;-85
2021/05/09 06:56:41;;;;;;;1.47;1.37;;;;;;;31.72;28.23;159517.72;1604030;87;21268;-84
2021/05/09 06:59:14;;;;;;;1.85;1.20;;;;;;;31.72;28.25;159516.36;1603027;88;21260;-84
2021/05/09 07:01:46;;;;;;;1.82;1.25;;;;;;;31.80;28.22;159537.73;1570686;90;21272;-84
2021/05/09 07:04:19;;;;;;;1.20;0.90;;;;;;;31.90;28.11;159565.72;1611797;89;21217;-85
2021/05/09 07:06:52;;;;;;;1.02;0.93;;;;;;;31.98;28.04;159585.73;1607965;88;21256;-84
2021/05/09 07:09:24;;;;;;;1.35;0.82;;;;;;;31.97;28.08;159584.44;1602951;89;21234;-84
2021/05/09 07:11:57;;;;;;;0.93;0.85;;;;;;;32.09;28.01;159616.50;1602841;89;21225;-84
2021/05/09 07:14:29;;;;;;;1.25;1.05;;;;;;;32.13;28.08;159627.14;1602866;88;21281;-85
2021/05/09 07:17:02;;;;;;;2.25;1.20;;;;;;;32.24;28.01;159657.86;1603057;89;21249;-84
2021/05/09 07:19:35;;;;;;;1.10;0.90;;;;;;;32.33;27.96;159680.55;1602067;88;22412;-86
2021/05/09 07:22:15;;;;;;;0.90;0.90;;;;;;;32.38;27.96;159693.88;1608622;88;21188;-84
2021/05/09 07:24:45;;;;;;;1.30;0.93;;;;;;;32.45;27.96;159713.89;1625911;87;21401;-88
2021/05/09 07:27:17;;;;;;;2.70;1.00;;;;;;;32.50;28.00;159727.25;1636304;87;21211;-87
2021/05/09 07:29:49;;;;;;;1.00;0.85;;;;;;;32.60;28.00;159752.64;1633081;87;21504;-88
2021/05/09 07:32:22;;;;;;;1.35;1.10;;;;;;;32.71;27.98;159783.36;1625495;87;21275;-88
2021/05/09 07:34:55;;;;;;;1.00;0.90;;;;;;;32.82;27.99;159812.72;1634834;86;21398;-87
2021/05/09 07:37:28;;;;;;;0.80;0.80;;;;;;;32.90;28.01;159832.75;1631073;87;21417;-86
2021/05/09 07:40:02;;;;;;;1.22;0.98;;;;;;;32.96;28.06;159850.13;1601311;88;21226;-87
2021/05/09 07:42:35;;;;;;;1.40;1.00;;;;;;;33.05;28.03;159872.78;1602190;87;21763;-87
2021/05/09 07:45:15;;;;;;;1.57;0.90;;;;;;;33.23;27.91;159922.22;1611529;88;21261;-89
2021/05/09 07:47:45;;;;;;;1.22;1.00;;;;;;;33.30;27.88;159940.95;1601941;87;21264;-87
2021/05/09 07:50:19;;;;;;;1.30;0.90;;;;;;;33.37;27.85;159959.62;1609947;88;21229;-87
2021/05/09 07:52:52;;;;;;;1.30;1.20;;;;;;;33.42;27.84;159973.00;1603407;88;21219;-84
2021/05/09 07:55:24;;;;;;;1.35;0.90;;;;;;;33.52;27.75;160001.02;1602377;88;21241;-87
2021/05/09 07:57:57;;;;;;;1.57;1.30;;;;;;;33.57;27.72;160014.41;1593194;88;21716;-87
2021/05/09 08:00:29;;;;;;;0.80;0.80;;;;;;;33.63;27.70;160030.45;1600145;87;21271;-86
2021/05/09 08:03:02;;;;;;;1.52;1.00;;;;;;;33.70;27.61;160047.83;1605057;87;21180;-88
2021/05/09 08:05:35;;;;;;;1.20;1.00;;;;;;;33.76;27.52;160063.88;1604229;87;21255;-88
2021/05/09 08:08:08;;;;;;;1.70;1.00;;;;;;;33.75;27.52;160062.52;1594592;87;21781;-88
2021/05/09 08:10:42;;;;;;;1.02;0.93;;;;;;;33.80;27.50;160075.91;1599384;87;21450;-89
2021/05/09 08:13:15;;;;;;;1.00;0.90;;;;;;;33.82;27.41;160079.89;1597170;87;22193;-88
2021/05/09 08:15:48;;;;;;;1.80;0.72;;;;;;;33.91;27.35;160103.97;1543738;90;21295;-87
2021/05/09 08:18:25;;;;;;;1.60;0.95;;;;;;;33.97;27.24;160121.28;1572968;88;21418;-87
2021/05/09 08:21:00;;;;;;;1.65;0.80;;;;;;;34.09;27.12;160153.41;1567037;89;21426;-87
2021/05/09 08:23:35;;;;;;;1.17;1.00;;;;;;;34.13;27.07;160162.81;1569876;89;21467;-90
2021/05/09 08:26:08;;;;;;;0.93;0.85;;;;;;;34.17;26.99;160174.83;1568310;88;21264;-90
2021/05/09 08:28:42;;;;;;;2.02;1.05;;;;;;;34.23;26.89;160190.83;1576514;89;21259;-88
2021/05/09 08:31:16;;;;;;;0.70;0.70;;;;;;;34.30;26.79;160210.88;1566013;89;21421;-87
2021/05/09 08:33:50;;;;;;;1.87;0.80;;;;;;;34.34;26.70;160221.59;1570724;89;21374;-88
2021/05/09 08:36:22;;;;;;;1.15;0.90;;;;;;;34.45;26.50;160249.63;1568134;89;21271;-89
2021/05/09 08:38:55;;;;;;;1.37;0.93;;;;;;;34.51;26.34;160267.00;1563445;89;21410;-88
2021/05/09 08:41:28;;;;;;;0.95;0.80;;;;;;;34.53;26.25;160272.36;1566630;89;21931;-86
2021/05/09 08:44:02;;;;;;;0.80;0.80;;;;;;;34.54;26.20;160275.03;1571572;89;21374;-87
2021/05/09 08:46:35;;;;;;;0.85;0.72;;;;;;;34.60;26.15;160289.78;1568040;89;21429;-86
2021/05/09 08:49:09;;;;;;;1.72;1.07;;;;;;;34.69;26.06;160313.83;1570423;89;21573;-86
2021/05/09 08:51:42;;;;;;;1.42;1.12;;;;;;;34.70;25.97;160317.88;1598860;87;21409;-86
2021/05/09 08:54:15;;;;;;;1.62;1.17;;;;;;;34.69;25.94;160313.83;1599403;87;21248;-86
2021/05/09 08:56:47;;;;;;;5.30;1.00;;;;;;;34.65;25.95;160303.17;1603028;87;21373;-87
2021/05/09 08:59:20;;;;;;;1.52;1.10;;;;;;;34.70;25.94;160316.50;1606476;87;21225;-87
2021/05/09 09:01:54;;;;;;;1.52;1.05;;;;;;;34.75;25.92;160329.91;1594903;87;21274;-86
2021/05/09 09:04:26;;;;;;;0.80;0.80;;;;;;;34.72;25.86;160323.17;1602253;87;21267;-86
2021/05/09 09:07:01;;;;;;;2.52;1.00;;;;;;;34.78;25.85;160339.25;1608716;86;21291;-87
2021/05/09 09:09:34;;;;;;;1.10;0.82;;;;;;;34.81;25.80;160347.28;1547465;87;21238;-88
2021/05/09 09:12:07;;;;;;;1.25;0.98;;;;;;;34.87;25.76;160363.30;1530578;92;21742;-88
2021/05/09 09:15:00;;;;;;;1.17;0.90;;;;;;;34.97;25.74;160390.03;1569779;89;21227;-86
2021/05/09 09:17:34;;;;;;;0.75;0.75;;;;;;;35.02;25.67;160403.42;1565857;89;21347;-87
2021/05/09 09:20:17;;;;;;;2.40;0.95;;;;;;;35.00;25.63;160398.06;1573336;89;21402;-88
2021/05/09 09:22:59;;;;;;;2.45;0.82;;;;;;;35.04;25.44;160407.41;1574560;89;21389;-86
2021/05/09 09:25:33;;;;;;;;;;;;;;;35.05;25.24;160411.50;1572854;89;21406;-87
2021/05/09 09:28:06;;;;;;;2.65;0.90;;;;;;;35.12;25.17;160430.20;1576611;89;20233;-88
2021/05/09 09:30:54;;;;;;;3.37;0.90;;;;;;;35.31;25.09;160482.36;1577364;89;21211;-84
2021/05/09 09:33:27;;;;;;;4.40;0.65;;;;;;;35.25;25.01;160466.28;1568465;89;21284;-86
2021/05/09 09:36:00;;;;;;;4.20;0.90;;;;;;;35.22;24.72;160458.31;1567913;89;21232;-87
2021/05/09 09:38:34;;;;;;;0.85;0.80;;;;;;;35.23;24.42;160460.98;1570683;89;21204;-84
2021/05/09 09:41:17;;;;;;;0.62;0.62;;;;;;;35.17;24.03;160443.59;1566262;89;21356;-86
2021/05/09 09:44:12;;;;;;;2.50;0.70;;;;;;;35.15;23.92;160438.25;1570456;89;21830;-87
2021/05/09 09:46:52;;;;;;;1.20;0.72;;;;;;;35.14;24.12;160436.88;1571196;89;21293;-87
2021/05/09 09:49:27;;;;;;;;;;;;;;;35.24;23.98;160462.30;1575700;89;21216;-86
2021/05/09 09:52:06;;;;;;;0.80;0.80;;;;;;;35.33;23.76;160487.72;1609958;87;20251;-86
2021/05/09 09:54:44;;;;;;;0.60;0.60;;;;;;;35.35;23.71;160491.72;1600775;87;21928;-87
2021/05/09 09:57:30;;;;;;;1.35;0.80;;;;;;;35.47;23.86;160523.81;1608680;87;21347;-87
2021/05/09 10:00:16;;;;;;;1.00;0.78;;;;;;;35.66;23.68;160574.66;1610707;87;21251;-86
2021/05/09 10:02:49;;;;;;;0.57;0.57;;;;;;;35.73;23.54;160593.42;1615290;87;22632;-88
2021/05/09 10:05:22;;;;;;;1.00;0.80;;;;;;;35.57;23.56;160550.59;1610399;87;21295;-88
2021/05/09 10:07:55;;;;;;;1.05;0.88;;;;;;;35.54;23.54;160542.56;1604028;87;21211;-86
2021/05/09 10:10:28;;;;;;;1.30;0.90;;;;;;;35.63;23.71;160566.69;1607075;87;21291;-88
2021/05/09 10:13:02;;;;;;;0.70;0.70;;;;;;;35.68;23.82;160580.03;1608292;87;21417;-88
2021/05/09 10:15:35;;;;;;;0.93;0.72;;;;;;;35.73;23.70;160593.42;1610894;87;21762;-88
2021/05/09 10:18:08;;;;;;;0.70;0.70;;;;;;;35.82;23.87;160617.50;1604255;87;21754;-90
2021/05/09 10:20:42;;;;;;;1.60;0.88;;;;;;;35.92;24.00;160644.23;1610066;87;21292;-87
2021/05/09 10:23:15;;;;;;;0.60;0.60;;;;;;;36.00;23.93;160665.67;1604057;86;21314;-88
2021/05/09 10:25:56;;;;;;;0.70;0.70;;;;;;;36.08;23.67;160689.80;1602800;87;21262;-88
2021/05/09 10:28:40;;;;;;;1.05;0.85;;;;;;;36.10;23.56;160695.16;1606574;87;21223;-88
2021/05/09 10:31:18;;;;;;;1.57;0.80;;;;;;;36.15;23.59;160708.50;1592232;87;21269;-89
2021/05/09 10:33:50;;;;;;;0.70;0.70;;;;;;;36.16;23.59;160711.19;1604159;87;21320;-89
2021/05/09 10:36:27;;;;;;;6.25;0.98;;;;;;;35.98;23.45;160660.31;1594707;87;21417;-87
2021/05/09 10:39:18;;;;;;;1.55;0.90;;;;;;;35.88;23.29;160633.56;1599152;87;21819;-90
2021/05/09 10:42:02;;;;;;;3.70;0.70;;;;;;;35.81;23.43;160614.81;1595798;87;21396;-87
2021/05/09 10:44:49;;;;;;;2.25;1.30;;;;;;;35.76;23.47;160602.78;1603622;87;21234;-88
2021/05/09 10:47:34;;;;;;;4.17;1.45;;;;;;;35.76;23.60;160601.47;1599076;87;21735;-87
2021/05/09 10:50:21;;;;;;;1.80;1.00;;;;;;;35.71;23.48;160588.06;1601700;87;21888;-88
2021/05/09 10:52:55;;;;;;;2.60;0.80;;;;;;;35.69;23.36;160582.70;1598084;87;21321;-88
2021/05/09 10:55:47;;;;;;;0.72;0.70;;;;;;;35.69;23.40;160584.06;1597323;87;21997;-88
2021/05/09 10:58:21;;;;;;;0.70;0.70;;;;;;;35.64;23.54;160570.67;1597614;87;21252;-89
2021/05/09 11:01:02;;;;;;;1.15;0.90;;;;;;;35.64;23.58;160570.67;1564423;89;21259;-89
2021/05/09 11:03:42;;;;;;;1.30;0.90;;;;;;;35.60;23.64;160558.64;1591480;87;21286;-88
2021/05/09 11:06:16;;;;;;;1.32;0.93;;;;;;;35.56;23.62;160549.28;1612069;88;21206;-86
2021/05/09 11:09:04;;;;;;;1.67;0.90;;;;;;;35.56;23.58;160549.28;1595162;88;21219;-87
2021/05/09 11:11:42;;;;;;;1.40;1.20;;;;;;;35.59;23.63;160555.97;1600541;88;21308;-86
2021/05/09 11:14:18;;;;;;;2.67;1.00;;;;;;;35.70;23.54;160585.39;1592573;89;21249;-87
2021/05/09 11:17:07;;;;;;;1.02;0.93;;;;;;;35.67;23.51;160578.72;1589997;89;21389;-88
2021/05/09 11:19:47;;;;;;;2.27;1.20;;;;;;;35.60;23.46;160559.95;1565446;90;21225;-87
2021/05/09 11:22:20;;;;;;;0.88;0.70;;;;;;;35.53;23.42;160541.25;1569436;89;21387;-86
2021/05/09 11:24:57;;;;;;;2.33;1.00;;;;;;;35.43;23.38;160514.45;1566653;90;21797;-86
2021/05/09 11:27:31;;;;;;;1.62;0.90;;;;;;;35.50;23.57;160531.84;1559879;89;22583;-84
2021/05/09 11:30:06;;;;;;;1.17;0.90;;;;;;;35.52;23.54;160538.56;1561854;89;21422;-88
2021/05/09 11:32:38;;;;;;;1.00;0.80;;;;;;;35.60;23.71;160558.64;1557950;90;21437;-87
2021/05/09 11:35:11;;;;;;;1.10;0.78;;;;;;;35.65;23.83;160572.03;1568534;89;21254;-88
2021/05/09 11:37:44;;;;;;;1.60;0.90;;;;;;;35.64;23.76;160569.36;1565752;89;21938;-89
2021/05/09 11:40:18;;;;;;;1.02;0.80;;;;;;;35.64;23.60;160569.36;1568488;89;21243;-89
2021/05/09 11:42:52;;;;;;;1.67;1.00;;;;;;;35.62;23.58;160565.31;1569048;89;21332;-87
2021/05/09 11:45:27;;;;;;;0.88;0.75;;;;;;;35.62;23.57;160564.00;1569143;89;21276;-89
2021/05/09 11:48:00;;;;;;;1.47;0.80;;;;;;;35.64;23.55;160569.36;1570153;89;21277;-89
2021/05/09 11:50:33;;;;;;;1.25;1.00;;;;;;;35.69;23.61;160584.06;1572235;89;21217;-89
2021/05/09 11:53:07;;;;;;;3.50;1.05;;;;;;;35.77;23.57;160605.45;1591589;88;21270;-87
2021/05/09 11:55:41;;;;;;;0.62;0.62;;;;;;;35.91;23.62;160642.92;1545049;91;21313;-89
2021/05/09 11:58:15;;;;;;;0.85;0.80;;;;;;;36.04;23.92;160676.41;1575476;89;21322;-88